KFTW METAR and TAF | Updated Today

KFTW METAR

Fort Worth Meacham International Airport

Observation time: 16 min. ago

KFTW 301853Z 18013KT 10SM CLR 21/08 A3005 RMK AO2 SLP172 T02110083

Need help? Read our tutorial on how to read METARs or read the parsed version below.

Fort Worth Meacham International Airport (KFTW) METAR

  • Weather conditions on Tue, 30 Nov 2021 18:53:00 +0000 (16 min. ago):
  • Present conditions: Dry
  • Clouds: Clear skies
  • Visibility: 16093 meters
  • Wind: 180 degrees at 13 knots
  • Temperature: 21 celsius
  • Dew point: 8 celsius
  • Pressure: 30.05 inHg
  • Remarks: AO2 SLP172 T02110083


Useful to know...

KFTW TAF

Fort Worth Meacham International Airport

KFTW 301720Z 3018/0118 19010KT P6SM FEW250 FM011400 26009KT P6SM FEW250
Observation time: 1:49 hr. ago
Need help? Read our tutorial on how to read TAFs or read the parsed version below.

Parsed version of TAF for Fort Worth Meacham International Airport (KFTW)

  • From 30 November at 18:00 UTC, to day 01 of the month at 18:00 UTC
  • Clouds: A few at 7620 meters
  • Wind: 190 degrees at 10
  • From day 1 of the month at 14:00 UTC
  • Clouds: A few at 7620 meters
  • Wind: 260 degrees at 9